Pagina principale
METAR-TAF:

METAR-TAF

Aeroporti :

Comiso, Italia

Aeroporto di Comiso

latitudine: 36-59-30N, longitudine: 14-36-25E, altezza: 190 m

Osservazione

Il bollettino è stato emesso 1 ora e 11 minuti fa, alle 11:50 UTC
Vento 12 kt da ovest, variando fra ovest/sud-ovest e nord-ovest
Temperature 14°C
Umidità 77%
Pressione 1023 hPa
Visibilità 10 km o più
Nubi sparse ad un'altezza di 2000 ft

METAR: LICB 161150Z 28012KT 250V310 9999 SCT020 14/10 Q1023

Ora: 14:01 (13:01 UTC)

Previsione

Il bollettino è stato emesso 2 ore e 1 minuti fa, alle 11:00 UTC
Previsione valida dal 16 alle 12 UTC al 16 alle 21 UTC
Vento 10 kt da ovest/nord-ovest
Visibilità 10 km o più
Nubi sparse ad un'altezza di 1500 ft

TAF: LICB 161100Z 1612/1621 30010KT 9999 SCT015

Osservazioni e previsioni meteorologiche di più di 4000 aeroporti (messaggi METAR e TAF).

Le stazioni disponibili sono rappresentate dai dischi gialli e rossi sulla carta.

Puntare il mouse per vedere il nome della stazione.

Clicca sopra per visualizzare le osservazioni e previsioni meteorologiche.

Per cambiare la mappa : fare clic sui pulsanti verdi con una croce nera per ingrandire, il pulsante verde con un trattino per diminuire, o sulla freccia verde per le mappe adiacenti.


METAR-TAF: